Time;durP1;ratioP1;P1;durP2;ratioP2;P2;SDS_P1;SDS_P2;PMS_P1;PMS_P2;Temp;Humidity;BMP_temperature;BMP_pressure;BME280_temperature;BME280_humidity;BME280_pressure;Samples;Min_cycle;Max_cycle;Signal;HPM_P1;HPM_P2
2023/08/23 00:01:51;;;;;;;0.10;0.10;;;;;;;13.24;100.00;101891.28;5115367;28;20034;-50
2023/08/23 00:04:16;;;;;;;0.10;0.10;;;;;;;13.22;100.00;101900.69;5114377;28;20020;-51
2023/08/23 00:06:41;;;;;;;0.10;0.10;;;;;;;13.21;100.00;101888.56;5115211;28;20481;-49
2023/08/23 00:09:07;;;;;;;0.10;0.10;;;;;;;13.17;100.00;101892.78;5115254;28;20467;-51
2023/08/23 00:11:32;;;;;;;0.10;0.10;;;;;;;12.97;100.00;101894.63;5114061;27;20070;-50
2023/08/23 00:13:57;;;;;;;0.00;0.00;;;;;;;12.99;100.00;101887.81;5115216;28;20028;-50
2023/08/23 00:16:23;;;;;;;0.10;0.10;;;;;;;12.92;100.00;101880.63;5114704;28;20106;-50
2023/08/23 00:18:50;;;;;;;0.10;0.10;;;;;;;13.00;100.00;101885.28;5114244;28;20024;-46
2023/08/23 00:21:15;;;;;;;0.10;0.10;;;;;;;12.98;100.00;101886.03;5114912;28;20031;-49
2023/08/23 00:23:40;;;;;;;0.10;0.10;;;;;;;12.96;100.00;101880.81;5115178;28;20080;-48
2023/08/23 00:26:06;;;;;;;0.10;0.10;;;;;;;12.93;100.00;101877.22;5114167;28;20098;-50
2023/08/23 00:28:31;;;;;;;0.10;0.10;;;;;;;12.94;100.00;101882.47;5114546;28;20027;-50
2023/08/23 00:30:56;;;;;;;0.10;0.10;;;;;;;12.80;100.00;101881.94;5114669;28;20459;-45
2023/08/23 00:33:22;;;;;;;0.10;0.10;;;;;;;12.91;100.00;101878.88;5113876;28;20028;-47
2023/08/23 00:35:47;;;;;;;0.10;0.10;;;;;;;12.89;100.00;101876.22;5114581;28;20020;-48
2023/08/23 00:38:13;;;;;;;0.05;0.05;;;;;;;12.93;100.00;101882.41;5113461;28;20015;-49
2023/08/23 00:40:38;;;;;;;0.10;0.10;;;;;;;12.87;100.00;101874.41;5114718;28;20030;-50
2023/08/23 00:43:07;;;;;;;0.10;0.10;;;;;;;12.83;100.00;101863.97;5114614;28;20489;-49
2023/08/23 00:45:35;;;;;;;0.10;0.10;;;;;;;12.83;100.00;101866.56;5113716;27;20113;-50
2023/08/23 00:48:02;;;;;;;0.10;0.10;;;;;;;12.84;100.00;101864.84;5114796;28;20102;-50
2023/08/23 00:50:28;;;;;;;0.10;0.10;;;;;;;12.80;100.00;101862.97;5114414;28;20020;-50
2023/08/23 00:52:53;;;;;;;0.10;0.10;;;;;;;12.85;100.00;101859.72;5113939;28;20063;-50
2023/08/23 00:55:19;;;;;;;0.10;0.10;;;;;;;12.74;100.00;101847.22;5114090;28;20027;-51
2023/08/23 00:57:44;;;;;;;0.10;0.10;;;;;;;12.89;100.00;101852.09;5114302;28;20020;-48
2023/08/23 01:00:10;;;;;;;0.10;0.10;;;;;;;12.80;100.00;101850.91;5113369;28;20069;-50
2023/08/23 01:02:35;;;;;;;0.10;0.10;;;;;;;12.83;100.00;101850.13;5113955;28;20055;-45
2023/08/23 01:05:02;;;;;;;0.10;0.10;;;;;;;12.71;100.00;101847.97;5114103;28;20112;-50
2023/08/23 01:07:37;;;;;;;0.10;0.10;;;;;;;12.69;100.00;101849.63;5113084;28;20047;-50
2023/08/23 01:10:14;;;;;;;0.10;0.10;;;;;;;12.58;100.00;101861.28;5113905;28;20428;-50
2023/08/23 01:12:46;;;;;;;0.10;0.10;;;;;;;12.48;100.00;101849.72;5113940;27;20088;-50
2023/08/23 01:15:13;;;;;;;0.10;0.10;;;;;;;12.34;100.00;101856.94;5113232;28;20031;-45
2023/08/23 01:17:44;;;;;;;0.10;0.10;;;;;;;12.27;100.00;101865.28;5113877;28;20378;-51
2023/08/23 01:20:10;;;;;;;0.10;0.10;;;;;;;12.16;100.00;101870.00;5114084;28;20072;-51
2023/08/23 01:22:39;;;;;;;0.10;0.10;;;;;;;12.04;100.00;101869.56;5112749;28;20023;-50
2023/08/23 01:25:05;;;;;;;0.10;0.10;;;;;;;12.03;100.00;101871.22;5113643;28;20519;-51
2023/08/23 01:27:32;;;;;;;0.10;0.10;;;;;;;12.13;100.00;101869.91;5112877;28;20024;-49
2023/08/23 01:29:58;;;;;;;0.10;0.10;;;;;;;12.20;100.00;101869.34;5113638;28;20023;-50
2023/08/23 01:32:29;;;;;;;0.10;0.10;;;;;;;12.13;100.00;101864.75;5113442;28;20035;-51
2023/08/23 01:35:17;;;;;;;0.10;0.10;;;;;;;12.16;100.00;101880.34;5113052;28;20058;-50
2023/08/23 01:37:47;;;;;;;0.10;0.10;;;;;;;12.23;100.00;101866.00;5113756;28;20062;-48
2023/08/23 01:40:12;;;;;;;0.10;0.10;;;;;;;12.18;100.00;101864.09;5113425;28;20023;-47
2023/08/23 01:42:39;;;;;;;0.10;0.10;;;;;;;12.11;100.00;101867.28;5112856;28;20493;-51
2023/08/23 01:45:05;;;;;;;0.10;0.10;;;;;;;12.15;100.00;101861.41;5113673;28;20490;-51
2023/08/23 01:47:30;;;;;;;0.10;0.10;;;;;;;12.13;100.00;101859.56;5112975;28;20281;-50
2023/08/23 01:49:56;;;;;;;0.10;0.10;;;;;;;12.02;100.00;101851.41;5112618;28;20031;-50
2023/08/23 01:52:21;;;;;;;0.10;0.10;;;;;;;12.07;100.00;101844.72;5112694;28;20498;-51
2023/08/23 01:54:46;;;;;;;0.10;0.10;;;;;;;11.98;100.00;101865.91;5113374;28;20028;-49
2023/08/23 01:57:12;;;;;;;0.10;0.10;;;;;;;12.03;100.00;101855.72;5112440;28;20023;-49
2023/08/23 01:59:37;;;;;;;0.10;0.10;;;;;;;12.08;100.00;101848.19;5113448;28;20035;-50
2023/08/23 02:02:03;;;;;;;0.10;0.10;;;;;;;12.05;100.00;101853.22;5113296;28;20416;-48
2023/08/23 02:04:29;;;;;;;0.10;0.10;;;;;;;12.01;100.00;101844.47;5112180;28;20102;-49
2023/08/23 02:06:54;;;;;;;0.10;0.10;;;;;;;12.05;100.00;101848.94;5113149;28;20055;-50
2023/08/23 02:09:19;;;;;;;0.10;0.10;;;;;;;12.01;100.00;101854.81;5113096;28;20085;-51
2023/08/23 02:11:44;;;;;;;0.10;0.10;;;;;;;11.94;100.00;101848.47;5112364;28;20023;-48
2023/08/23 02:14:10;;;;;;;0.10;0.10;;;;;;;11.88;100.00;101842.16;5113236;28;20063;-50
2023/08/23 02:16:35;;;;;;;0.10;0.10;;;;;;;11.88;100.00;101842.16;5113017;28;20052;-51
2023/08/23 02:19:00;;;;;;;0.10;0.10;;;;;;;11.97;100.00;101848.63;5112427;28;20034;-51
2023/08/23 02:21:26;;;;;;;0.10;0.10;;;;;;;11.93;100.00;101844.13;5112658;28;20095;-51
2023/08/23 02:23:51;;;;;;;0.10;0.10;;;;;;;11.89;100.00;101843.94;5112531;28;20458;-49
2023/08/23 02:26:16;;;;;;;0.10;0.10;;;;;;;11.82;100.00;101841.09;5113083;28;20026;-50
2023/08/23 02:28:42;;;;;;;0.10;0.10;;;;;;;11.86;100.00;101848.19;5112976;28;20028;-51
2023/08/23 02:31:07;;;;;;;0.10;0.10;;;;;;;11.84;100.00;101844.63;5112535;28;20477;-50
2023/08/23 02:33:33;;;;;;;0.10;0.10;;;;;;;11.84;100.00;101841.19;5112797;28;20027;-49
2023/08/23 02:35:58;;;;;;;0.10;0.10;;;;;;;11.81;100.00;101841.03;5112960;28;20471;-51
2023/08/23 02:38:24;;;;;;;0.10;0.10;;;;;;;11.79;100.00;101843.56;5112147;28;20389;-50
2023/08/23 02:40:49;;;;;;;0.10;0.10;;;;;;;11.75;100.00;101841.69;5113085;28;20077;-49
2023/08/23 02:43:14;;;;;;;0.10;0.10;;;;;;;11.81;100.00;101838.47;5112540;28;20089;-51
2023/08/23 02:45:40;;;;;;;0.10;0.10;;;;;;;11.91;100.00;101839.72;5112160;28;20039;-51
2023/08/23 02:48:08;;;;;;;0.13;0.13;;;;;;;11.81;100.00;101834.19;5112811;28;20107;-50
2023/08/23 02:50:33;;;;;;;;;;;;;;;11.95;100.00;101839.03;5112983;28;20033;-50
2023/08/23 02:52:58;;;;;;;0.10;0.10;;;;;;;11.83;100.00;101842.00;5111989;28;20327;-51
2023/08/23 02:55:23;;;;;;;0.10;0.10;;;;;;;11.82;100.00;101835.94;5112478;28;20637;-51
2023/08/23 02:57:49;;;;;;;0.10;0.10;;;;;;;11.75;100.00;101835.63;5112901;28;20068;-51
2023/08/23 03:00:15;;;;;;;0.20;0.20;;;;;;;11.73;100.00;101832.13;5113259;28;20038;-50
2023/08/23 03:02:40;;;;;;;0.10;0.10;;;;;;;11.73;100.00;101827.81;5116413;28;20028;-49
2023/08/23 03:05:06;;;;;;;0.13;0.13;;;;;;;11.64;100.00;101822.28;5116315;28;20131;-50
2023/08/23 03:07:31;;;;;;;0.10;0.10;;;;;;;11.57;100.00;101834.06;5115384;28;20035;-51
2023/08/23 03:09:56;;;;;;;0.10;0.10;;;;;;;11.47;100.00;101827.63;5116248;28;20028;-51
2023/08/23 03:12:21;;;;;;;0.10;0.10;;;;;;;11.46;100.00;101823.28;5115997;28;20114;-51
2023/08/23 03:14:47;;;;;;;0.10;0.10;;;;;;;11.42;100.00;101825.69;5115575;28;20026;-51
2023/08/23 03:17:13;;;;;;;0.10;0.10;;;;;;;11.36;100.00;101821.13;5115783;28;20027;-50
2023/08/23 03:19:38;;;;;;;0.20;0.20;;;;;;;11.37;100.00;101825.47;5116109;28;20458;-51
2023/08/23 03:22:03;;;;;;;0.10;0.10;;;;;;;11.38;100.00;101822.09;5115380;28;20035;-50
2023/08/23 03:24:29;;;;;;;0.10;0.10;;;;;;;11.43;100.00;101827.47;5115853;28;20028;-50
2023/08/23 03:26:54;;;;;;;0.10;0.10;;;;;;;11.41;100.00;101826.50;5116130;28;20348;-50
2023/08/23 03:29:19;;;;;;;0.10;0.10;;;;;;;11.42;100.00;101816.22;5115133;28;20105;-50
2023/08/23 03:31:45;;;;;;;0.20;0.20;;;;;;;11.35;100.00;101815.09;5115950;28;20026;-51
2023/08/23 03:34:10;;;;;;;0.10;0.10;;;;;;;11.32;100.00;101821.81;5114917;28;20099;-50
2023/08/23 03:36:35;;;;;;;0.10;0.10;;;;;;;11.35;100.00;101820.25;5115416;28;20036;-50
2023/08/23 03:39:01;;;;;;;0.10;0.10;;;;;;;11.40;100.00;101823.03;5115973;28;20493;-48
2023/08/23 03:41:26;;;;;;;0.10;0.10;;;;;;;11.48;100.00;101824.22;5114870;28;20024;-51
2023/08/23 03:43:51;;;;;;;0.10;0.10;;;;;;;11.39;100.00;101826.44;5115773;28;20453;-50
2023/08/23 03:46:17;;;;;;;0.10;0.10;;;;;;;11.34;100.00;101823.66;5115332;28;20019;-50
2023/08/23 03:48:42;;;;;;;0.10;0.10;;;;;;;11.34;100.00;101815.03;5114814;27;20466;-51
2023/08/23 03:51:08;;;;;;;0.10;0.10;;;;;;;11.35;100.00;101829.72;5115802;28;20392;-51
2023/08/23 03:53:33;;;;;;;0.10;0.10;;;;;;;11.29;100.00;101821.72;5114896;28;20448;-51
2023/08/23 03:55:58;;;;;;;0.10;0.10;;;;;;;11.22;100.00;101818.00;5114800;28;20023;-51
2023/08/23 03:58:24;;;;;;;0.10;0.10;;;;;;;11.23;100.00;101826.59;5115063;28;20020;-51
2023/08/23 04:00:52;;;;;;;0.10;0.10;;;;;;;11.28;100.00;101832.84;5115429;28;20074;-51
2023/08/23 04:03:17;;;;;;;0.10;0.10;;;;;;;11.33;100.00;101836.50;5114292;28;20102;-51
2023/08/23 04:05:42;;;;;;;0.10;0.10;;;;;;;11.48;100.00;101831.97;5115433;28;20070;-50
2023/08/23 04:08:08;;;;;;;0.10;0.10;;;;;;;11.53;100.00;101824.44;5115416;28;20387;-50
2023/08/23 04:10:34;;;;;;;0.10;0.10;;;;;;;11.58;100.00;101825.50;5114156;28;20517;-50
2023/08/23 04:12:59;;;;;;;0.13;0.13;;;;;;;11.51;100.00;101826.94;5114932;28;20024;-50
2023/08/23 04:15:24;;;;;;;0.10;0.10;;;;;;;11.42;100.00;101833.44;5114812;28;20106;-50
2023/08/23 04:17:50;;;;;;;0.13;0.13;;;;;;;11.44;100.00;101834.34;5114194;28;20020;-49
2023/08/23 04:20:15;;;;;;;0.15;0.15;;;;;;;11.37;100.00;101840.97;5114876;28;20031;-51
2023/08/23 04:22:41;;;;;;;0.10;0.10;;;;;;;11.35;100.00;101845.19;5114780;28;20034;-48
2023/08/23 04:25:07;;;;;;;0.10;0.10;;;;;;;11.29;100.00;101838.06;5114125;28;20118;-48
2023/08/23 04:27:33;;;;;;;0.10;0.10;;;;;;;11.22;100.00;101830.88;5114523;28;20048;-51
2023/08/23 04:29:58;;;;;;;0.10;0.10;;;;;;;11.18;100.00;101836.72;5114693;28;20022;-50
2023/08/23 04:32:23;;;;;;;0.10;0.10;;;;;;;11.15;100.00;101834.00;5113315;28;20016;-48
2023/08/23 04:34:49;;;;;;;0.10;0.10;;;;;;;11.08;100.00;101838.03;5114612;28;20028;-50
2023/08/23 04:37:14;;;;;;;0.20;0.20;;;;;;;11.22;100.00;101843.78;5114438;28;20026;-47
2023/08/23 04:39:39;;;;;;;0.15;0.15;;;;;;;11.13;100.00;101828.78;5114061;28;20107;-49
2023/08/23 04:42:05;;;;;;;0.10;0.10;;;;;;;11.20;100.00;101835.09;5114559;28;20032;-50
2023/08/23 04:44:31;;;;;;;0.10;0.10;;;;;;;11.22;100.00;101836.06;5113467;27;20096;-50
2023/08/23 04:46:58;;;;;;;0.10;0.10;;;;;;;11.34;100.00;101844.31;5114254;28;20034;-48
2023/08/23 04:49:23;;;;;;;0.20;0.20;;;;;;;11.38;100.00;101829.84;5114088;28;20060;-45
2023/08/23 04:51:48;;;;;;;0.20;0.20;;;;;;;11.42;100.00;101831.72;5113563;28;20076;-46
2023/08/23 04:54:14;;;;;;;0.20;0.20;;;;;;;11.44;100.00;101821.44;5113799;28;20108;-48
2023/08/23 04:56:39;;;;;;;0.17;0.17;;;;;;;11.47;100.00;101825.03;5114175;28;20023;-45
2023/08/23 04:59:05;;;;;;;0.10;0.10;;;;;;;11.47;100.00;101830.22;5113418;28;20064;-48
2023/08/23 05:01:30;;;;;;;0.10;0.10;;;;;;;11.43;100.00;101830.91;5113676;28;20112;-46
2023/08/23 05:03:55;;;;;;;0.10;0.10;;;;;;;11.48;100.00;101831.97;5114087;28;20023;-51
2023/08/23 05:06:21;;;;;;;0.20;0.20;;;;;;;11.50;100.00;101827.78;5113130;28;20030;-45
2023/08/23 05:08:46;;;;;;;0.10;0.10;;;;;;;11.53;100.00;101830.47;5114062;28;20043;-50
2023/08/23 05:11:11;;;;;;;0.10;0.10;;;;;;;11.62;100.00;101836.81;5113552;28;20382;-46
2023/08/23 05:13:37;;;;;;;0.10;0.10;;;;;;;11.70;100.00;101827.72;5113133;28;20493;-48
2023/08/23 05:16:03;;;;;;;0.10;0.10;;;;;;;11.76;100.00;101821.91;5113823;28;20073;-51
2023/08/23 05:18:28;;;;;;;0.10;0.10;;;;;;;11.84;100.00;101816.22;5113518;28;20094;-48
2023/08/23 05:20:59;;;;;;;0.10;0.10;;;;;;;11.97;100.00;101821.94;5113232;28;20047;-46
2023/08/23 05:23:25;;;;;;;0.10;0.10;;;;;;;12.05;100.00;101828.25;5112990;28;20462;-45
2023/08/23 05:25:52;;;;;;;0.10;0.10;;;;;;;12.07;100.00;101823.16;5113747;28;20104;-50
2023/08/23 05:28:18;;;;;;;0.10;0.10;;;;;;;12.17;100.00;101827.84;5112634;28;20024;-46
2023/08/23 05:30:43;;;;;;;0.10;0.10;;;;;;;12.26;100.00;101828.19;5113489;28;20491;-48
2023/08/23 05:33:09;;;;;;;0.10;0.10;;;;;;;12.30;100.00;101826.63;5113362;28;20039;-47
2023/08/23 05:35:34;;;;;;;0.10;0.10;;;;;;;12.32;100.00;101831.03;5112625;28;20039;-51
2023/08/23 05:37:59;;;;;;;0.10;0.10;;;;;;;12.37;100.00;101833.81;5113633;28;20031;-49
2023/08/23 05:40:25;;;;;;;0.10;0.10;;;;;;;12.41;100.00;101835.69;5113301;28;20034;-51
2023/08/23 05:42:50;;;;;;;0.10;0.10;;;;;;;12.43;100.00;101835.72;5112760;27;20085;-47
2023/08/23 05:45:15;;;;;;;0.10;0.10;;;;;;;12.46;100.00;101834.16;5113096;28;20518;-45
2023/08/23 05:47:41;;;;;;;0.10;0.10;;;;;;;12.48;100.00;101834.19;5112612;28;20078;-45
2023/08/23 05:50:07;;;;;;;0.10;0.10;;;;;;;12.52;100.00;101833.47;5113550;28;20106;-45
2023/08/23 05:52:32;;;;;;;0.10;0.10;;;;;;;12.55;100.00;101838.78;5112889;28;20055;-47
2023/08/23 05:54:57;;;;;;;0.10;0.10;;;;;;;12.45;100.00;101847.88;5112465;28;20027;-47
2023/08/23 05:57:23;;;;;;;0.10;0.10;;;;;;;12.53;100.00;101843.00;5112955;28;20527;-49
2023/08/23 05:59:48;;;;;;;0.10;0.10;;;;;;;12.62;100.00;101845.06;5113218;28;20031;-49
2023/08/23 06:02:13;;;;;;;0.20;0.20;;;;;;;12.64;100.00;101843.41;5112142;28;20038;-48
2023/08/23 06:04:39;;;;;;;0.10;0.10;;;;;;;12.66;100.00;101845.22;5113377;28;20459;-46
2023/08/23 06:07:04;;;;;;;0.20;0.10;;;;;;;12.66;100.00;101852.09;5113400;28;20420;-48
2023/08/23 06:09:32;;;;;;;0.10;0.10;;;;;;;12.73;100.00;101854.09;5112038;28;20030;-49
2023/08/23 06:11:58;;;;;;;0.10;0.10;;;;;;;12.82;100.00;101854.44;5113195;28;20026;-50
2023/08/23 06:14:27;;;;;;;0.10;0.10;;;;;;;12.96;100.00;101846.28;5112892;28;20035;-50
2023/08/23 06:16:52;;;;;;;0.10;0.10;;;;;;;13.10;100.00;101845.06;5112444;28;20102;-47
2023/08/23 06:19:17;;;;;;;0.10;0.10;;;;;;;13.21;100.00;101842.88;5112961;28;20102;-51
2023/08/23 06:21:43;;;;;;;0.10;0.10;;;;;;;13.34;100.00;101845.03;5113145;28;20123;-45
2023/08/23 06:24:09;;;;;;;0.10;0.10;;;;;;;13.50;100.00;101845.59;5112585;28;20035;-46
2023/08/23 06:26:35;;;;;;;0.10;0.10;;;;;;;13.64;100.00;101849.50;5112596;28;20555;-48
2023/08/23 06:29:01;;;;;;;0.10;0.10;;;;;;;13.78;100.00;101847.38;5112815;28;20098;-47
2023/08/23 06:31:26;;;;;;;0.15;0.15;;;;;;;13.98;100.00;101850.63;5111838;28;20024;-50
2023/08/23 06:33:51;;;;;;;0.10;0.10;;;;;;;14.12;100.00;101858.81;5112784;28;20036;-51
2023/08/23 06:36:17;;;;;;;0.10;0.10;;;;;;;14.29;100.00;101854.16;5116087;28;20031;-48
2023/08/23 06:38:42;;;;;;;0.10;0.10;;;;;;;14.52;100.00;101850.50;5116358;28;20016;-50
2023/08/23 06:41:07;;;;;;;0.10;0.10;;;;;;;14.78;100.00;101854.75;5116747;28;20471;-51
2023/08/23 06:43:32;;;;;;;0.20;0.20;;;;;;;14.97;100.00;101856.13;5116746;27;20035;-46
2023/08/23 06:45:58;;;;;;;0.10;0.10;;;;;;;15.20;100.00;101852.44;5115832;28;20096;-48
2023/08/23 06:48:23;;;;;;;0.08;0.08;;;;;;;15.31;100.00;101858.75;5116338;28;20409;-51
2023/08/23 06:50:49;;;;;;;0.10;0.10;;;;;;;15.47;100.00;101854.88;5116643;28;20028;-47
2023/08/23 06:53:14;;;;;;;0.10;0.10;;;;;;;15.60;100.00;101856.91;5115109;28;20044;-51
2023/08/23 06:55:41;;;;;;;0.10;0.10;;;;;;;15.76;100.00;101858.19;5116599;28;20035;-51
2023/08/23 06:58:07;;;;;;;0.10;0.10;;;;;;;15.85;100.00;101857.53;5115703;28;20023;-46
2023/08/23 07:00:34;;;;;;;0.10;0.10;;;;;;;16.09;100.00;101866.78;5116079;28;20117;-47
2023/08/23 07:02:59;;;;;;;0.10;0.10;;;;;;;16.18;100.00;101868.69;5116553;28;20068;-48
2023/08/23 07:05:24;;;;;;;0.10;0.10;;;;;;;16.31;100.00;101873.34;5115441;28;20023;-46
2023/08/23 07:07:50;;;;;;;0.10;0.10;;;;;;;16.43;100.00;101881.41;5116427;28;20024;-50
2023/08/23 07:10:15;;;;;;;0.10;0.10;;;;;;;16.63;100.00;101887.06;5116159;28;20019;-52
2023/08/23 07:12:40;;;;;;;0.10;0.10;;;;;;;16.73;100.00;101876.84;5115431;28;20424;-47
2023/08/23 07:15:06;;;;;;;0.10;0.10;;;;;;;16.86;100.00;101888.38;5116188;28;20091;-50
2023/08/23 07:17:33;;;;;;;0.10;0.10;;;;;;;16.98;100.00;101885.16;5115800;28;20376;-46
2023/08/23 07:19:58;;;;;;;0.10;0.10;;;;;;;17.18;100.00;101880.34;5115298;28;20539;-47
2023/08/23 07:22:24;;;;;;;0.10;0.10;;;;;;;17.26;100.00;101889.19;5115737;28;20313;-52
2023/08/23 07:24:49;;;;;;;0.10;0.10;;;;;;;17.40;100.00;101887.72;5116153;28;20036;-52
2023/08/23 07:27:15;;;;;;;0.08;0.08;;;;;;;17.56;100.00;101891.47;5114983;27;20386;-51
2023/08/23 07:29:40;;;;;;;0.00;0.00;;;;;;;17.70;100.00;101896.03;5115850;28;20165;-47
2023/08/23 07:32:05;;;;;;;0.10;0.10;;;;;;;17.73;100.00;101891.75;5115981;28;20068;-51
2023/08/23 07:34:31;;;;;;;0.00;0.00;;;;;;;17.86;100.00;101897.19;5115022;28;20392;-51
2023/08/23 07:36:56;;;;;;;0.00;0.00;;;;;;;18.05;100.00;101904.47;5115829;28;20102;-47
2023/08/23 07:39:23;;;;;;;0.05;0.05;;;;;;;18.09;100.00;101906.28;5115382;28;20059;-47
2023/08/23 07:41:49;;;;;;;0.00;0.00;;;;;;;18.22;100.00;101911.69;5114949;28;20089;-48
2023/08/23 07:44:14;;;;;;;0.00;0.00;;;;;;;18.47;100.00;101912.03;5115248;28;20421;-51
2023/08/23 07:46:39;;;;;;;0.00;0.00;;;;;;;18.51;100.00;101909.47;5115077;28;20059;-47
2023/08/23 07:49:05;;;;;;;0.03;0.03;;;;;;;18.57;100.00;101909.56;5115019;28;20047;-46
2023/08/23 07:51:30;;;;;;;0.00;0.00;;;;;;;18.82;100.00;101903.78;5115176;27;20409;-48
2023/08/23 07:53:55;;;;;;;0.00;0.00;;;;;;;18.86;100.00;101906.47;5115223;28;20075;-52
2023/08/23 07:56:21;;;;;;;0.00;0.00;;;;;;;18.99;100.00;101909.22;5114260;28;20035;-46
2023/08/23 07:58:46;;;;;;;0.00;0.00;;;;;;;19.04;100.00;101908.44;5115316;28;20031;-49
2023/08/23 08:01:12;;;;;;;0.00;0.00;;;;;;;19.27;100.00;101907.81;5115257;28;20043;-48
2023/08/23 08:03:39;;;;;;;0.00;0.00;;;;;;;19.34;100.00;101907.03;5114780;28;20102;-48
2023/08/23 08:06:04;;;;;;;0.10;0.10;;;;;;;19.41;100.00;101907.94;5115355;28;20369;-52
2023/08/23 08:08:30;;;;;;;0.00;0.00;;;;;;;19.61;100.00;101902.91;5114235;28;20474;-52
2023/08/23 08:10:55;;;;;;;0.00;0.00;;;;;;;19.61;100.00;101908.13;5114925;28;20028;-51
2023/08/23 08:13:20;;;;;;;0.00;0.00;;;;;;;19.69;100.00;101911.69;5114614;28;20107;-48
2023/08/23 08:15:46;;;;;;;0.00;0.00;;;;;;;19.86;100.00;101903.16;5114295;28;20034;-51
2023/08/23 08:18:11;;;;;;;0.00;0.00;;;;;;;19.96;98.78;101904.97;5114916;28;20023;-47
2023/08/23 08:20:36;;;;;;;0.00;0.00;;;;;;;20.19;96.60;101896.41;5115087;28;20482;-47
2023/08/23 08:23:02;;;;;;;0.00;0.00;;;;;;;20.31;97.12;101906.97;5114337;28;20107;-47
2023/08/23 08:25:27;;;;;;;0.00;0.00;;;;;;;20.32;94.48;101907.81;5114506;28;20124;-52
2023/08/23 08:27:53;;;;;;;0.00;0.00;;;;;;;20.43;94.93;101911.38;5114620;28;20085;-51
2023/08/23 08:30:18;;;;;;;0.00;0.00;;;;;;;20.47;94.34;101914.91;5113799;28;20058;-52
2023/08/23 08:32:44;;;;;;;0.00;0.00;;;;;;;20.56;95.17;101922.81;5114462;28;20386;-49
2023/08/23 08:35:09;;;;;;;0.00;0.00;;;;;;;20.64;94.72;101922.84;5114684;28;20031;-50
2023/08/23 08:37:35;;;;;;;0.00;0.00;;;;;;;20.74;92.96;101922.03;5113524;28;20027;-50
2023/08/23 08:40:00;;;;;;;0.10;0.10;;;;;;;20.80;93.67;101913.31;5114583;28;20367;-50
2023/08/23 08:42:26;;;;;;;0.00;0.00;;;;;;;20.93;91.77;101916.88;5114076;28;20027;-47
2023/08/23 08:44:52;;;;;;;0.00;0.00;;;;;;;20.96;89.37;101902.03;5113943;28;20020;-48
2023/08/23 08:47:17;;;;;;;0.00;0.00;;;;;;;20.94;87.03;101900.28;5114333;28;20032;-51
2023/08/23 08:49:42;;;;;;;0.00;0.00;;;;;;;20.95;85.30;101900.28;5114320;28;20028;-46
2023/08/23 08:52:12;;;;;;;0.00;0.00;;;;;;;21.10;86.60;101898.59;5113275;28;20489;-47
2023/08/23 08:54:37;;;;;;;0.00;0.00;;;;;;;21.36;86.88;101896.03;5114254;28;20028;-46
2023/08/23 08:57:04;;;;;;;0.00;0.00;;;;;;;21.52;84.08;101904.78;5113553;28;20023;-47
2023/08/23 08:59:29;;;;;;;0.00;0.00;;;;;;;21.52;79.14;101912.63;5113130;28;20024;-49
2023/08/23 09:01:57;;;;;;;0.00;0.00;;;;;;;21.66;80.60;101908.31;5114219;28;20034;-50
2023/08/23 09:04:23;;;;;;;0.00;0.00;;;;;;;21.69;79.05;101910.94;5113893;27;20031;-52
2023/08/23 09:06:48;;;;;;;0.00;0.00;;;;;;;21.80;80.38;101907.44;5113234;28;20122;-51
2023/08/23 09:09:14;;;;;;;0.00;0.00;;;;;;;21.79;78.21;101906.56;5113646;28;20028;-51
2023/08/23 09:11:39;;;;;;;0.00;0.00;;;;;;;22.02;78.82;101905.69;5113103;28;20023;-52
2023/08/23 09:14:16;;;;;;;0.00;0.00;;;;;;;22.11;80.26;101910.91;5114009;28;20031;-48
2023/08/23 09:16:41;;;;;;;0.00;0.00;;;;;;;22.16;76.26;101903.91;5114215;28;20497;-52
2023/08/23 09:19:11;;;;;;;0.00;0.00;;;;;;;22.33;77.35;101916.13;5113111;28;20048;-50
2023/08/23 09:21:41;;;;;;;0.10;0.10;;;;;;;22.55;78.45;101902.97;5113603;28;20020;-47
2023/08/23 09:24:06;;;;;;;0.00;0.00;;;;;;;22.73;76.59;101902.88;5113625;28;20036;-50
2023/08/23 09:26:32;;;;;;;0.00;0.00;;;;;;;22.85;73.39;101904.56;5112511;28;20094;-51
2023/08/23 09:28:57;;;;;;;0.00;0.00;;;;;;;22.91;73.35;101909.81;5113676;28;20019;-51
2023/08/23 09:31:22;;;;;;;0.00;0.00;;;;;;;23.21;72.45;101907.91;5113530;28;20024;-46
2023/08/23 09:33:47;;;;;;;0.00;0.00;;;;;;;23.62;73.96;101912.00;5112755;28;20031;-48
2023/08/23 09:36:25;;;;;;;0.00;0.00;;;;;;;24.13;73.53;101922.13;5113053;28;20020;-45
2023/08/23 09:38:51;;;;;;;0.00;0.00;;;;;;;24.03;71.35;101917.84;5113479;28;20391;-49
2023/08/23 09:41:16;;;;;;;0.00;0.00;;;;;;;24.11;69.51;101915.16;5112690;28;20024;-49
2023/08/23 09:43:42;;;;;;;0.00;0.00;;;;;;;23.84;67.86;101911.84;5113373;28;20061;-48
2023/08/23 09:46:09;;;;;;;0.00;0.00;;;;;;;24.11;67.61;101908.09;5113276;28;20374;-49
2023/08/23 09:48:36;;;;;;;0.00;0.00;;;;;;;24.32;67.45;101912.28;5112445;28;20032;-50
2023/08/23 09:51:02;;;;;;;;;;;;;;;24.56;73.09;101910.25;5113742;28;20035;-48
2023/08/23 09:53:33;;;;;;;0.00;0.00;;;;;;;25.33;64.58;101907.50;5112707;28;20325;-50
2023/08/23 09:56:02;;;;;;;0.00;0.00;;;;;;;25.39;63.57;101918.00;5112857;28;20027;-50
2023/08/23 09:58:27;;;;;;;0.00;0.00;;;;;;;25.74;63.87;101912.13;5113168;28;20032;-48
2023/08/23 10:00:55;;;;;;;0.00;0.00;;;;;;;26.36;61.89;101905.75;5112681;28;20359;-49
2023/08/23 10:03:22;;;;;;;0.00;0.00;;;;;;;26.31;60.36;101907.59;5112955;28;20051;-50
2023/08/23 10:05:49;;;;;;;0.00;0.00;;;;;;;26.44;57.34;101921.44;5113139;28;20034;-47
2023/08/23 10:08:15;;;;;;;;;;;;;;;26.85;60.23;101918.91;5112526;28;20386;-50
2023/08/23 10:10:49;;;;;;;0.00;0.00;;;;;;;26.91;52.63;101919.63;5117358;28;19911;-49
2023/08/23 10:13:16;;;;;;;0.00;0.00;;;;;;;27.81;50.71;101928.16;5117139;28;20027;-50
2023/08/23 10:15:41;;;;;;;0.00;0.00;;;;;;;28.24;50.53;101920.84;5116494;28;20399;-44
2023/08/23 10:18:11;;;;;;;0.00;0.00;;;;;;;28.25;49.55;101919.91;5117373;28;20489;-47
2023/08/23 10:20:37;;;;;;;0.00;0.00;;;;;;;28.51;46.25;101927.16;5117147;28;20030;-51
2023/08/23 10:23:23;;;;;;;0.00;0.00;;;;;;;28.61;45.17;101924.22;5116714;28;20106;-52
2023/08/23 10:25:48;;;;;;;0.00;0.00;;;;;;;28.23;45.47;101919.13;5116789;28;20066;-50
2023/08/23 10:28:18;;;;;;;0.00;0.00;;;;;;;28.96;45.07;101925.88;5116912;28;20055;-47
2023/08/23 10:30:45;;;;;;;0.00;0.00;;;;;;;29.69;44.54;101915.59;5116179;28;20058;-51
2023/08/23 10:33:13;;;;;;;0.00;0.00;;;;;;;29.54;42.85;101916.97;5116872;28;20470;-49
2023/08/23 10:35:41;;;;;;;0.00;0.00;;;;;;;29.59;42.67;101914.16;5117058;28;20031;-49
2023/08/23 10:38:08;;;;;;;0.00;0.00;;;;;;;29.58;41.83;101915.97;5116185;28;20522;-46
2023/08/23 10:40:35;;;;;;;0.00;0.00;;;;;;;30.11;42.28;101912.41;5116560;27;20588;-50
2023/08/23 10:43:09;;;;;;;;;;;;;;;31.00;42.00;101912.63;5117169;28;20026;-50
2023/08/23 10:45:50;;;;;;;0.00;0.00;;;;;;;30.12;41.55;101908.78;5116555;28;20381;-46
2023/08/23 10:48:18;;;;;;;0.00;0.00;;;;;;;30.12;41.05;101910.59;5116352;28;20544;-52
2023/08/23 10:50:45;;;;;;;0.00;0.00;;;;;;;29.74;39.87;101913.66;5115875;28;20386;-50
2023/08/23 10:53:10;;;;;;;0.00;0.00;;;;;;;29.95;38.89;101904.09;5116640;28;20043;-50
2023/08/23 10:55:37;;;;;;;0.00;0.00;;;;;;;30.18;38.83;101899.75;5116250;28;20424;-50
2023/08/23 10:58:02;;;;;;;0.00;0.00;;;;;;;31.27;37.91;101902.72;5115738;28;20074;-51
2023/08/23 11:00:28;;;;;;;0.00;0.00;;;;;;;30.87;36.60;101901.59;5116159;28;20475;-47
2023/08/23 11:02:56;;;;;;;0.00;0.00;;;;;;;30.97;34.96;101896.78;5116384;28;20520;-51
2023/08/23 11:05:21;;;;;;;0.00;0.00;;;;;;;30.57;37.29;101887.72;5115454;28;20284;-51
2023/08/23 11:07:47;;;;;;;0.00;0.00;;;;;;;30.59;36.07;101880.50;5116425;28;20016;-51
2023/08/23 11:10:12;;;;;;;0.00;0.00;;;;;;;30.55;36.08;101879.78;5115994;28;20030;-51
2023/08/23 11:12:38;;;;;;;0.00;0.00;;;;;;;31.08;35.11;101872.41;5115518;28;20026;-51
2023/08/23 11:15:04;;;;;;;0.00;0.00;;;;;;;32.33;34.22;101875.06;5116175;28;20099;-51